Time;durP1;ratioP1;P1;durP2;ratioP2;P2;SDS_P1;SDS_P2;PMS_P1;PMS_P2;Temp;Humidity;BMP_temperature;BMP_pressure;BME280_temperature;BME280_humidity;BME280_pressure;Samples;Min_cycle;Max_cycle;Signal;HPM_P1;HPM_P2
2023/12/19 05:06:44;;;;;;;0.50;0.50;;;-0.50;99.90;;;;;;5281774;23;20246;-64
2023/12/19 05:09:09;;;;;;;0.43;0.43;;;-0.50;99.90;;;;;;4995616;28;20270;-64
2023/12/19 05:11:36;;;;;;;0.50;0.50;;;-0.50;99.90;;;;;;4995834;28;20603;-63
2023/12/19 05:14:01;;;;;;;0.50;0.50;;;-0.50;99.90;;;;;;4995562;28;20171;-64
2023/12/19 05:16:27;;;;;;;0.40;0.40;;;-0.50;99.90;;;;;;4995621;28;20653;-64
2023/12/19 05:18:53;;;;;;;0.40;0.40;;;-0.50;99.90;;;;;;4995611;28;20656;-63
2023/12/19 05:21:21;;;;;;;0.80;0.80;;;-0.60;99.90;;;;;;4994043;28;20415;-63
2023/12/19 05:23:46;;;;;;;0.40;0.40;;;-0.70;99.90;;;;;;4995481;28;20167;-64
2023/12/19 05:26:12;;;;;;;0.60;0.60;;;-0.70;99.90;;;;;;4995069;28;20678;-64
2023/12/19 05:28:39;;;;;;;0.53;0.53;;;-0.70;99.90;;;;;;4995462;28;20203;-64
2023/12/19 05:31:05;;;;;;;0.60;0.60;;;-0.70;99.90;;;;;;4995404;28;20242;-64
2023/12/19 05:33:33;;;;;;;0.60;0.60;;;-0.70;99.90;;;;;;4995473;28;20171;-63
2023/12/19 05:35:58;;;;;;;0.40;0.40;;;-0.70;99.90;;;;;;4994349;28;20167;-64
2023/12/19 05:38:24;;;;;;;0.40;0.40;;;-0.70;99.90;;;;;;4994383;28;20655;-64
2023/12/19 05:40:51;;;;;;;0.40;0.40;;;-0.70;99.90;;;;;;4995108;28;20226;-64
2023/12/19 05:43:17;;;;;;;0.40;0.40;;;-0.70;99.90;;;;;;4994824;28;20190;-64
2023/12/19 05:45:43;;;;;;;0.50;0.50;;;-0.70;99.90;;;;;;4994527;28;20543;-64
2023/12/19 05:48:08;;;;;;;0.40;0.40;;;-0.80;99.90;;;;;;4994430;28;20673;-64
2023/12/19 05:50:34;;;;;;;0.50;0.50;;;-0.80;99.90;;;;;;4994813;28;20174;-64
2023/12/19 05:53:00;;;;;;;0.40;0.40;;;-0.90;99.90;;;;;;4994663;28;20168;-64
2023/12/19 05:55:26;;;;;;;0.40;0.40;;;-0.90;99.90;;;;;;4994382;28;20221;-64
2023/12/19 05:57:51;;;;;;;1.23;1.23;;;-0.90;99.90;;;;;;4994527;28;20252;-64
2023/12/19 06:00:17;;;;;;;0.40;0.40;;;-0.90;99.90;;;;;;4994768;28;20171;-64
2023/12/19 06:02:44;;;;;;;0.40;0.40;;;-0.80;99.90;;;;;;4993499;28;20531;-64
2023/12/19 06:05:10;;;;;;;0.40;0.40;;;-0.80;99.90;;;;;;4993040;28;20174;-63
2023/12/19 06:07:36;;;;;;;0.40;0.40;;;-0.80;99.90;;;;;;4994451;28;20313;-64
2023/12/19 06:10:08;;;;;;;0.50;0.50;;;-0.70;99.90;;;;;;4994584;28;20407;-64
2023/12/19 06:12:34;;;;;;;0.30;0.30;;;-0.70;99.90;;;;;;4994744;28;20162;-64
2023/12/19 06:15:00;;;;;;;0.40;0.40;;;-0.80;99.90;;;;;;4994029;28;20181;-65
2023/12/19 06:17:25;;;;;;;0.30;0.30;;;-0.70;99.90;;;;;;4994014;28;20465;-65
2023/12/19 06:19:51;;;;;;;0.40;0.40;;;-0.80;99.90;;;;;;4994297;28;20567;-64
2023/12/19 06:22:17;;;;;;;0.40;0.40;;;-0.80;99.90;;;;;;4989653;28;20223;-65
2023/12/19 06:24:42;;;;;;;1.07;1.07;;;-0.80;99.90;;;;;;4984767;28;20517;-63
2023/12/19 06:27:08;;;;;;;0.50;0.50;;;-0.80;99.90;;;;;;4974659;28;20198;-64
2023/12/19 06:29:34;;;;;;;0.40;0.40;;;-0.80;99.90;;;;;;4988873;28;20558;-64
2023/12/19 06:31:59;;;;;;;0.40;0.40;;;-0.80;99.90;;;;;;4994080;28;20179;-64
2023/12/19 06:34:28;;;;;;;0.40;0.40;;;-0.80;99.90;;;;;;4993658;28;20171;-65
2023/12/19 06:36:54;;;;;;;0.50;0.50;;;-0.80;99.90;;;;;;4994296;28;20254;-63
2023/12/19 06:39:20;;;;;;;0.40;0.40;;;-0.80;99.90;;;;;;4993586;28;20228;-66
2023/12/19 06:41:46;;;;;;;0.85;0.85;;;-0.90;99.90;;;;;;4991484;28;20219;-66
2023/12/19 06:44:13;;;;;;;0.40;0.40;;;-0.90;99.90;;;;;;4993763;28;20164;-65
2023/12/19 06:46:38;;;;;;;0.40;0.40;;;-0.90;99.90;;;;;;4993975;28;20239;-64
2023/12/19 06:49:04;;;;;;;0.40;0.40;;;-0.90;99.90;;;;;;4993770;28;20582;-64
2023/12/19 06:51:33;;;;;;;0.60;0.60;;;-0.90;99.90;;;;;;4993909;28;20646;-64
2023/12/19 06:53:59;;;;;;;0.43;0.43;;;-0.90;99.90;;;;;;4993548;28;20921;-65
2023/12/19 06:56:28;;;;;;;0.40;0.40;;;-0.90;99.90;;;;;;4992680;28;20258;-64
2023/12/19 06:58:54;;;;;;;0.40;0.40;;;-0.90;99.90;;;;;;4978172;28;20248;-65
2023/12/19 07:01:19;;;;;;;0.32;0.32;;;-1.00;99.90;;;;;;4983467;28;20183;-65
2023/12/19 07:03:45;;;;;;;0.50;0.50;;;-0.90;99.90;;;;;;4975694;28;20179;-65
2023/12/19 07:06:14;;;;;;;0.40;0.40;;;-0.90;99.90;;;;;;4992617;28;20257;-65
2023/12/19 07:08:40;;;;;;;0.40;0.40;;;-0.90;99.90;;;;;;4992398;28;20197;-64
2023/12/19 07:11:06;;;;;;;0.40;0.40;;;-0.90;99.90;;;;;;4992854;28;20547;-65
2023/12/19 07:13:32;;;;;;;0.40;0.40;;;-0.80;99.90;;;;;;4993612;28;20167;-65
2023/12/19 07:15:58;;;;;;;0.50;0.50;;;-0.80;99.90;;;;;;4977506;28;20435;-65
2023/12/19 07:18:24;;;;;;;0.40;0.40;;;-0.80;99.90;;;;;;4974354;28;20717;-65
2023/12/19 07:20:49;;;;;;;0.40;0.40;;;-0.70;99.90;;;;;;4974317;28;20171;-63
2023/12/19 07:23:15;;;;;;;0.40;0.40;;;-0.70;99.90;;;;;;4984837;28;20487;-63
2023/12/19 07:25:41;;;;;;;0.50;0.50;;;-0.70;99.90;;;;;;4987051;28;20256;-62
2023/12/19 07:28:07;;;;;;;0.60;0.60;;;-0.60;99.90;;;;;;4991461;28;20292;-62
2023/12/19 07:30:32;;;;;;;0.40;0.40;;;-0.50;99.90;;;;;;4980469;28;20419;-62
2023/12/19 07:33:01;;;;;;;0.50;0.50;;;-0.50;99.90;;;;;;4992651;28;20175;-62
2023/12/19 07:35:26;;;;;;;0.30;0.30;;;-0.50;99.90;;;;;;4992987;28;20187;-62
2023/12/19 07:37:52;;;;;;;0.47;0.47;;;-0.40;99.90;;;;;;4990766;28;20667;-62
2023/12/19 07:40:18;;;;;;;0.60;0.60;;;-0.20;99.90;;;;;;4993322;28;20178;-62
2023/12/19 07:42:44;;;;;;;0.40;0.40;;;0.00;99.90;;;;;;4992919;28;20232;-62
2023/12/19 07:45:11;;;;;;;0.50;0.50;;;0.30;99.90;;;;;;4987531;28;20219;-65
2023/12/19 07:47:37;;;;;;;0.40;0.40;;;0.50;99.90;;;;;;4989864;28;20609;-62
2023/12/19 07:50:03;;;;;;;0.33;0.33;;;0.60;99.90;;;;;;4976266;28;20183;-63
2023/12/19 07:52:29;;;;;;;0.40;0.40;;;0.70;99.90;;;;;;4973809;28;20455;-64
2023/12/19 07:54:55;;;;;;;0.30;0.30;;;0.90;99.90;;;;;;4975743;28;20214;-63
2023/12/19 07:57:20;;;;;;;0.50;0.50;;;1.00;99.90;;;;;;4974821;28;20282;-64
2023/12/19 07:59:46;;;;;;;0.30;0.30;;;1.10;99.90;;;;;;4984328;28;20326;-63
2023/12/19 08:02:12;;;;;;;0.30;0.30;;;1.20;99.90;;;;;;4976427;28;20177;-64
2023/12/19 08:04:38;;;;;;;0.30;0.30;;;1.30;99.90;;;;;;4987693;28;20187;-64
2023/12/19 08:07:04;;;;;;;0.45;0.45;;;1.40;99.90;;;;;;4993206;28;20466;-62
2023/12/19 08:09:30;;;;;;;0.40;0.40;;;1.50;99.90;;;;;;4992408;28;20281;-62
2023/12/19 08:11:56;;;;;;;0.45;0.45;;;1.60;99.90;;;;;;4993521;28;20219;-64
2023/12/19 08:14:22;;;;;;;0.30;0.30;;;1.90;99.90;;;;;;4991523;28;20187;-64
2023/12/19 08:16:49;;;;;;;0.38;0.38;;;2.20;99.90;;;;;;4982484;28;20201;-63
2023/12/19 08:19:17;;;;;;;0.40;0.40;;;2.40;99.90;;;;;;4981489;28;20266;-64
2023/12/19 08:21:53;;;;;;;1.30;1.30;;;2.70;99.90;;;;;;4994408;28;20172;-64
2023/12/19 08:24:19;;;;;;;0.30;0.30;;;2.80;99.90;;;;;;4977487;28;20255;-64
2023/12/19 08:26:49;;;;;;;0.30;0.30;;;3.00;99.90;;;;;;4977979;28;20583;-64
2023/12/19 08:29:15;;;;;;;0.30;0.30;;;3.30;99.90;;;;;;4978362;28;20184;-65
2023/12/19 08:31:41;;;;;;;0.35;0.35;;;3.70;99.90;;;;;;4988926;28;20198;-64
2023/12/19 08:34:07;;;;;;;1.43;1.33;;;4.30;99.90;;;;;;4996203;28;20237;-65
2023/12/19 08:36:33;;;;;;;0.30;0.30;;;5.10;99.90;;;;;;4996139;28;20721;-64
2023/12/19 08:38:59;;;;;;;0.20;0.20;;;5.80;99.90;;;;;;4995819;28;20454;-64
2023/12/19 08:41:25;;;;;;;0.30;0.30;;;6.40;99.90;;;;;;4993430;28;20540;-65
2023/12/19 08:43:51;;;;;;;0.30;0.30;;;6.60;99.90;;;;;;4986293;28;20528;-66
2023/12/19 08:46:18;;;;;;;0.43;0.43;;;7.10;99.90;;;;;;4984159;28;20258;-64
2023/12/19 08:48:44;;;;;;;0.35;0.35;;;7.40;99.90;;;;;;4996244;28;20274;-64
2023/12/19 08:51:10;;;;;;;0.30;0.30;;;7.70;99.90;;;;;;4984758;28;20269;-64
2023/12/19 08:53:36;;;;;;;0.57;0.57;;;7.90;99.90;;;;;;4976618;28;20182;-64
2023/12/19 08:56:01;;;;;;;0.33;0.33;;;8.10;99.90;;;;;;4984577;28;20852;-64
2023/12/19 08:58:27;;;;;;;0.50;0.50;;;8.40;99.90;;;;;;4980537;28;20504;-64
2023/12/19 09:00:54;;;;;;;0.30;0.20;;;8.60;99.90;;;;;;4978744;28;20190;-64
2023/12/19 09:03:19;;;;;;;0.30;0.30;;;8.70;99.90;;;;;;4987894;28;20177;-64
2023/12/19 09:05:46;;;;;;;0.30;0.30;;;8.80;99.90;;;;;;4995427;28;20773;-62
2023/12/19 09:08:12;;;;;;;0.40;0.40;;;9.00;99.90;;;;;;4977517;28;20698;-65
2023/12/19 09:10:41;;;;;;;0.60;0.60;;;9.40;99.90;;;;;;4989130;28;20418;-65
2023/12/19 09:13:06;;;;;;;0.67;0.60;;;9.70;99.90;;;;;;4995501;28;20422;-64
2023/12/19 09:15:32;;;;;;;0.90;0.90;;;10.00;99.90;;;;;;4994170;28;20420;-61
2023/12/19 09:17:57;;;;;;;0.30;0.30;;;10.30;99.90;;;;;;4995533;28;20204;-65
2023/12/19 09:20:24;;;;;;;0.53;0.53;;;10.60;99.90;;;;;;4985230;28;20824;-64
2023/12/19 09:22:50;;;;;;;0.30;0.30;;;10.90;99.90;;;;;;4976213;28;20177;-65
2023/12/19 09:25:16;;;;;;;0.40;0.40;;;11.20;99.90;;;;;;4994609;28;20420;-65
2023/12/19 09:27:42;;;;;;;0.30;0.30;;;11.40;99.90;;;;;;4983023;28;20438;-64
2023/12/19 09:30:09;;;;;;;0.30;0.30;;;11.50;99.90;;;;;;4995366;28;20498;-65
2023/12/19 09:32:39;;;;;;;0.73;0.73;;;11.50;99.90;;;;;;4995382;28;20493;-65
2023/12/19 09:35:06;;;;;;;0.60;0.60;;;11.50;99.90;;;;;;4980928;28;20449;-65
2023/12/19 09:37:32;;;;;;;0.43;0.43;;;11.70;99.90;;;;;;4975745;28;20440;-63
2023/12/19 09:39:57;;;;;;;0.40;0.40;;;11.80;99.90;;;;;;4975716;28;20463;-63
2023/12/19 09:42:23;;;;;;;0.33;0.33;;;11.70;98.70;;;;;;4988876;28;20230;-64
2023/12/19 09:44:49;;;;;;;0.67;0.67;;;11.70;99.00;;;;;;4990022;28;20261;-64
2023/12/19 09:47:25;;;;;;;0.30;0.20;;;11.70;97.90;;;;;;4994811;28;20211;-64
2023/12/19 09:49:53;;;;;;;0.30;0.30;;;11.80;98.30;;;;;;4995507;28;20407;-64
2023/12/19 09:52:24;;;;;;;0.43;0.43;;;11.40;95.70;;;;;;4995163;28;20383;-63
2023/12/19 09:54:50;;;;;;;0.70;0.50;;;11.10;97.20;;;;;;4994825;28;20386;-63
2023/12/19 09:57:21;;;;;;;0.30;0.20;;;10.70;96.80;;;;;;4994664;28;20420;-62
2023/12/19 09:59:47;;;;;;;0.30;0.30;;;10.30;97.50;;;;;;4977270;28;20443;-63
2023/12/19 10:02:19;;;;;;;0.40;0.40;;;10.20;99.20;;;;;;4975380;28;20436;-64
2023/12/19 10:04:44;;;;;;;0.30;0.20;;;10.20;98.50;;;;;;4974982;28;20413;-63
2023/12/19 10:07:10;;;;;;;0.70;0.70;;;9.90;98.20;;;;;;4975442;28;20778;-63
2023/12/19 10:09:54;;;;;;;1.33;0.60;;;9.40;99.30;;;;;;4975435;28;20192;-63
2023/12/19 10:12:20;;;;;;;0.30;0.30;;;9.00;99.90;;;;;;4982456;28;20267;-64
2023/12/19 10:14:47;;;;;;;0.60;0.60;;;8.80;99.90;;;;;;4989343;28;20426;-65
2023/12/19 10:17:15;;;;;;;0.30;0.30;;;8.30;99.90;;;;;;4983601;28;20441;-64
2023/12/19 10:19:40;;;;;;;0.70;0.70;;;8.10;99.90;;;;;;4990565;28;20472;-65
2023/12/19 10:22:08;;;;;;;1.80;0.87;;;7.60;99.90;;;;;;4991242;28;20419;-63
2023/12/19 10:24:35;;;;;;;0.70;0.50;;;7.30;99.90;;;;;;4980119;28;20188;-62
2023/12/19 10:27:02;;;;;;;0.40;0.40;;;7.10;99.90;;;;;;4993818;28;20432;-63
2023/12/19 10:29:36;;;;;;;0.30;0.28;;;6.80;99.90;;;;;;4985299;28;20424;-64
2023/12/19 10:32:19;;;;;;;0.30;0.20;;;6.60;99.90;;;;;;4986710;28;20591;-64
2023/12/19 10:34:57;;;;;;;1.05;1.05;;;6.30;99.90;;;;;;4991911;28;20176;-62
2023/12/19 10:37:27;;;;;;;0.40;0.40;;;5.80;99.90;;;;;;4981427;28;20207;-65
2023/12/19 10:40:09;;;;;;;0.70;0.70;;;5.30;99.90;;;;;;4974776;28;20206;-64
2023/12/19 10:42:35;;;;;;;0.40;0.40;;;4.90;99.90;;;;;;4978372;28;20174;-63
2023/12/19 10:45:03;;;;;;;0.30;0.30;;;4.60;99.90;;;;;;4984743;28;20175;-64
2023/12/19 10:47:29;;;;;;;0.30;0.30;;;4.40;99.90;;;;;;4975487;28;20474;-63
2023/12/19 10:49:55;;;;;;;0.30;0.30;;;4.20;99.90;;;;;;4974840;28;20184;-64
2023/12/19 10:52:24;;;;;;;0.30;0.30;;;4.10;99.90;;;;;;4974609;28;20186;-64
2023/12/19 10:55:00;;;;;;;0.30;0.30;;;4.10;99.90;;;;;;4975411;28;20174;-63
2023/12/19 10:57:31;;;;;;;0.32;0.32;;;4.10;99.90;;;;;;4988318;28;20206;-64
2023/12/19 11:00:09;;;;;;;0.30;0.30;;;4.10;99.90;;;;;;4993487;28;20233;-64
2023/12/19 11:02:39;;;;;;;1.60;1.50;;;4.00;99.90;;;;;;4975597;28;20177;-63
2023/12/19 11:05:15;;;;;;;0.30;0.30;;;4.10;99.90;;;;;;4974317;28;20237;-63
2023/12/19 11:07:42;;;;;;;0.40;0.40;;;4.00;99.90;;;;;;4979574;28;20186;-63
2023/12/19 11:10:10;;;;;;;0.30;0.30;;;4.00;99.90;;;;;;4992447;28;20222;-65
2023/12/19 11:12:37;;;;;;;0.52;0.52;;;4.00;99.90;;;;;;4993846;28;20175;-63
2023/12/19 11:15:06;;;;;;;0.30;0.30;;;4.00;99.90;;;;;;4977662;28;20187;-63
2023/12/19 11:17:39;;;;;;;0.30;0.30;;;3.90;99.90;;;;;;4992031;28;20209;-63
2023/12/19 11:20:16;;;;;;;0.30;0.30;;;3.90;99.90;;;;;;4987596;28;20209;-63
2023/12/19 11:23:03;;;;;;;0.85;0.80;;;3.90;99.90;;;;;;4992855;28;20166;-63
2023/12/19 11:25:59;;;;;;;1.15;0.80;;;4.00;99.90;;;;;;4990697;28;20182;-63
2023/12/19 11:28:26;;;;;;;0.40;0.40;;;4.20;99.90;;;;;;4989252;28;20191;-64
2023/12/19 11:30:52;;;;;;;0.30;0.30;;;4.30;99.90;;;;;;4992264;28;20171;-63
2023/12/19 11:33:29;;;;;;;1.50;1.40;;;4.30;99.90;;;;;;4985135;28;20202;-63
2023/12/19 11:35:54;;;;;;;0.30;0.30;;;4.30;99.90;;;;;;4973755;28;20569;-63
2023/12/19 11:38:28;;;;;;;0.40;0.40;;;4.30;99.90;;;;;;4974087;28;20207;-63
2023/12/19 11:40:58;;;;;;;0.30;0.30;;;4.30;99.90;;;;;;4979357;28;20418;-64
2023/12/19 11:43:29;;;;;;;0.40;0.40;;;4.30;99.90;;;;;;4974435;28;20171;-63
2023/12/19 11:46:16;;;;;;;0.40;0.40;;;4.40;99.90;;;;;;4981959;28;20528;-63
2023/12/19 11:48:44;;;;;;;0.40;0.40;;;4.50;99.90;;;;;;4993313;28;20189;-61
2023/12/19 11:51:13;;;;;;;0.85;0.63;;;4.40;99.90;;;;;;4978878;28;20527;-64
2023/12/19 11:53:41;;;;;;;0.30;0.30;;;4.40;99.90;;;;;;4980667;28;20188;-63
2023/12/19 11:56:08;;;;;;;0.30;0.30;;;4.50;99.90;;;;;;4996904;28;20179;-63
2023/12/19 11:58:47;;;;;;;0.30;0.30;;;4.50;99.90;;;;;;4996728;28;20261;-63
2023/12/19 12:01:12;;;;;;;0.40;0.40;;;4.60;99.90;;;;;;4994895;28;20171;-63
2023/12/19 12:03:38;;;;;;;0.30;0.30;;;4.60;99.90;;;;;;4995380;28;20558;-63
2023/12/19 12:06:04;;;;;;;3.37;1.57;;;4.60;99.90;;;;;;4993655;28;20655;-63
2023/12/19 12:08:30;;;;;;;0.40;0.40;;;4.60;99.90;;;;;;4994880;28;20203;-64
2023/12/19 12:11:02;;;;;;;0.47;0.47;;;4.70;99.90;;;;;;4980660;28;20180;-62
2023/12/19 12:13:30;;;;;;;0.30;0.30;;;4.60;99.90;;;;;;4977792;28;20244;-63
2023/12/19 12:15:56;;;;;;;1.05;0.98;;;4.60;99.90;;;;;;4983224;28;20184;-64
2023/12/19 12:18:23;;;;;;;0.90;0.90;;;4.70;99.90;;;;;;4987335;28;20218;-64
2023/12/19 12:20:48;;;;;;;0.38;0.38;;;4.80;99.90;;;;;;4979046;28;20172;-63
2023/12/19 12:23:20;;;;;;;0.40;0.40;;;4.90;99.90;;;;;;4980796;28;20179;-62
2023/12/19 12:25:56;;;;;;;0.57;0.57;;;5.00;99.90;;;;;;4996145;28;20231;-62
2023/12/19 12:28:26;;;;;;;0.30;0.30;;;4.90;99.90;;;;;;4996465;28;20240;-62
2023/12/19 12:30:56;;;;;;;0.30;0.30;;;4.90;99.90;;;;;;4996517;28;20573;-62
2023/12/19 12:33:27;;;;;;;0.30;0.30;;;4.80;99.90;;;;;;4996643;28;20167;-64
2023/12/19 12:35:53;;;;;;;0.35;0.35;;;4.90;99.90;;;;;;4983801;28;20183;-64
2023/12/19 12:38:22;;;;;;;0.30;0.30;;;4.90;99.90;;;;;;4983561;28;20199;-62
2023/12/19 12:40:58;;;;;;;0.45;0.45;;;5.00;99.90;;;;;;4992020;28;20203;-61
2023/12/19 12:43:49;;;;;;;0.30;0.30;;;5.00;99.90;;;;;;4976887;28;20186;-63
2023/12/19 12:46:19;;;;;;;0.30;0.30;;;5.20;99.90;;;;;;4986569;28;20559;-62
2023/12/19 12:49:04;;;;;;;0.30;0.30;;;5.20;99.90;;;;;;4995907;28;20182;-63
2023/12/19 12:51:32;;;;;;;0.30;0.30;;;5.30;99.90;;;;;;4987551;28;20192;-63
2023/12/19 12:54:02;;;;;;;0.30;0.30;;;5.30;99.90;;;;;;4990126;28;20187;-63
2023/12/19 12:56:40;;;;;;;0.32;0.32;;;5.30;99.90;;;;;;4995633;28;20337;-63
2023/12/19 12:59:08;;;;;;;0.30;0.30;;;5.20;99.90;;;;;;4996146;28;20268;-63
2023/12/19 13:01:35;;;;;;;0.30;0.30;;;5.10;99.90;;;;;;4991414;28;20179;-63
2023/12/19 13:04:02;;;;;;;0.40;0.40;;;4.90;99.90;;;;;;4979420;28;20185;-64
2023/12/19 13:06:28;;;;;;;0.30;0.30;;;4.90;99.90;;;;;;4976262;28;20204;-63
2023/12/19 13:08:54;;;;;;;0.30;0.30;;;4.80;99.90;;;;;;4991416;28;20578;-63
2023/12/19 13:11:21;;;;;;;0.50;0.50;;;4.80;99.90;;;;;;4994459;28;20432;-62
2023/12/19 13:13:46;;;;;;;0.30;0.30;;;4.80;99.90;;;;;;4995629;28;20668;-62
2023/12/19 13:16:12;;;;;;;0.97;0.93;;;4.80;99.90;;;;;;4985945;28;20204;-62
2023/12/19 13:18:38;;;;;;;0.40;0.40;;;4.80;99.90;;;;;;4975801;28;20220;-60
2023/12/19 13:21:04;;;;;;;0.30;0.30;;;4.80;99.90;;;;;;4976300;28;20213;-61
2023/12/19 13:23:31;;;;;;;0.30;0.30;;;4.70;99.90;;;;;;4990100;28;20706;-61
2023/12/19 13:25:57;;;;;;;0.60;0.60;;;4.70;99.90;;;;;;4992908;28;20179;-62
2023/12/19 13:28:24;;;;;;;0.60;0.60;;;4.60;99.90;;;;;;4995319;28;20172;-62
2023/12/19 13:30:50;;;;;;;0.40;0.40;;;4.60;99.90;;;;;;4988556;28;20183;-61
2023/12/19 13:33:16;;;;;;;0.40;0.40;;;4.60;99.90;;;;;;4985302;28;20195;-61
2023/12/19 13:35:42;;;;;;;0.30;0.30;;;4.50;99.90;;;;;;4975910;28;20521;-62
2023/12/19 13:38:11;;;;;;;0.30;0.30;;;4.50;99.90;;;;;;4988221;28;20270;-61
2023/12/19 13:40:37;;;;;;;0.30;0.30;;;4.50;99.90;;;;;;4995396;28;20249;-61
2023/12/19 13:43:03;;;;;;;0.40;0.40;;;4.50;99.90;;;;;;4994100;28;20183;-61
2023/12/19 13:45:33;;;;;;;0.30;0.20;;;4.40;99.90;;;;;;4991996;28;20172;-61
2023/12/19 13:47:58;;;;;;;0.30;0.30;;;4.40;99.90;;;;;;4994439;28;20438;-62
2023/12/19 13:50:26;;;;;;;0.30;0.30;;;4.40;99.90;;;;;;4976137;28;20176;-61
2023/12/19 13:52:51;;;;;;;0.30;0.30;;;4.30;99.90;;;;;;4983138;28;20621;-63
2023/12/19 13:55:17;;;;;;;0.30;0.30;;;4.40;99.90;;;;;;4975025;28;20243;-62
2023/12/19 13:57:43;;;;;;;0.37;0.37;;;4.30;99.90;;;;;;4979618;28;20196;-63
2023/12/19 14:00:09;;;;;;;0.30;0.30;;;4.30;99.90;;;;;;4988096;28;20489;-63
2023/12/19 14:02:37;;;;;;;0.47;0.47;;;4.30;99.90;;;;;;4985694;28;20412;-64
2023/12/19 14:05:05;;;;;;;0.40;0.40;;;4.30;99.90;;;;;;4987319;28;20167;-62
2023/12/19 14:07:31;;;;;;;1.85;1.85;;;4.30;99.90;;;;;;4975137;28;20229;-63
2023/12/19 14:09:56;;;;;;;0.30;0.30;;;4.30;99.90;;;;;;4982067;28;20203;-63
2023/12/19 14:12:22;;;;;;;0.30;0.30;;;4.30;99.90;;;;;;4994246;28;20676;-64
2023/12/19 14:14:47;;;;;;;0.30;0.30;;;4.30;99.90;;;;;;4994197;28;20185;-62
2023/12/19 14:17:13;;;;;;;0.40;0.40;;;4.30;99.90;;;;;;4994560;28;20204;-63
2023/12/19 14:19:39;;;;;;;0.30;0.30;;;4.30;99.90;;;;;;4994044;28;20306;-63
2023/12/19 14:22:05;;;;;;;0.30;0.30;;;4.30;99.90;;;;;;4985273;28;20241;-62
2023/12/19 14:24:31;;;;;;;0.30;0.30;;;4.40;99.90;;;;;;4978719;28;20499;-68
2023/12/19 14:26:57;;;;;;;0.30;0.30;;;4.30;99.90;;;;;;4971702;28;20191;-61
2023/12/19 14:29:23;;;;;;;0.30;0.30;;;4.30;99.90;;;;;;4982249;28;20173;-61
2023/12/19 14:31:49;;;;;;;0.33;0.33;;;4.20;99.90;;;;;;4983146;28;20426;-62
2023/12/19 14:34:15;;;;;;;0.30;0.30;;;4.20;99.90;;;;;;4977290;28;20277;-64
2023/12/19 14:36:45;;;;;;;0.30;0.30;;;4.20;99.90;;;;;;4974644;28;20192;-62
2023/12/19 14:39:12;;;;;;;0.35;0.35;;;4.20;99.90;;;;;;4975385;28;20198;-63
2023/12/19 14:41:41;;;;;;;0.40;0.40;;;4.20;99.90;;;;;;4971349;28;20281;-64
2023/12/19 14:44:06;;;;;;;0.30;0.30;;;4.20;99.90;;;;;;4974768;28;20165;-64
2023/12/19 14:46:33;;;;;;;0.40;0.40;;;4.20;99.90;;;;;;4973410;28;20196;-63
2023/12/19 14:48:59;;;;;;;0.30;0.30;;;4.20;99.90;;;;;;4959852;28;20173;-63
2023/12/19 14:51:24;;;;;;;0.30;0.30;;;4.10;99.90;;;;;;4975810;28;20535;-63
2023/12/19 14:53:50;;;;;;;0.40;0.40;;;4.10;99.90;;;;;;4974798;28;20927;-61
2023/12/19 14:56:16;;;;;;;0.40;0.40;;;4.10;99.90;;;;;;4974555;28;20273;-63
2023/12/19 14:58:42;;;;;;;0.32;0.32;;;4.10;99.90;;;;;;4975218;28;20234;-62
2023/12/19 15:01:15;;;;;;;0.80;0.77;;;4.10;99.90;;;;;;4958082;28;20262;-64
2023/12/19 15:03:41;;;;;;;0.50;0.50;;;4.10;99.90;;;;;;4959298;28;20425;-63
2023/12/19 15:06:08;;;;;;;0.30;0.30;;;4.10;99.90;;;;;;4955162;28;20592;-63
2023/12/19 15:08:34;;;;;;;0.43;0.43;;;4.10;99.90;;;;;;4955336;29;20242;-62
2023/12/19 15:10:59;;;;;;;0.40;0.40;;;4.10;99.90;;;;;;4955578;29;20169;-63
2023/12/19 15:13:25;;;;;;;0.37;0.37;;;4.10;99.90;;;;;;4955550;29;20239;-62
2023/12/19 15:15:50;;;;;;;1.03;0.80;;;4.10;99.90;;;;;;4966836;28;20259;-62
2023/12/19 15:18:16;;;;;;;0.30;0.30;;;4.00;99.90;;;;;;4969759;28;20215;-62
2023/12/19 15:20:42;;;;;;;0.30;0.30;;;4.00;99.90;;;;;;4937770;29;20256;-63
2023/12/19 15:23:07;;;;;;;0.30;0.30;;;4.00;99.90;;;;;;4955113;28;20179;-63
2023/12/19 15:25:36;;;;;;;0.40;0.40;;;4.10;99.90;;;;;;4957592;28;20175;-61
2023/12/19 15:28:02;;;;;;;0.35;0.35;;;4.10;99.90;;;;;;4959672;28;20238;-62
2023/12/19 15:30:28;;;;;;;0.40;0.40;;;4.10;99.90;;;;;;4977621;28;20225;-61
2023/12/19 15:32:56;;;;;;;0.33;0.33;;;4.10;99.90;;;;;;4978282;28;20414;-62
2023/12/19 15:35:21;;;;;;;0.30;0.30;;;4.00;99.90;;;;;;4977500;28;20409;-62
2023/12/19 15:37:47;;;;;;;0.40;0.40;;;4.00;99.90;;;;;;4977670;28;20193;-65
2023/12/19 15:40:13;;;;;;;0.40;0.40;;;4.00;99.90;;;;;;4975688;28;20205;-63
2023/12/19 15:42:41;;;;;;;0.30;0.30;;;4.00;99.90;;;;;;4958646;28;20636;-63
2023/12/19 15:45:08;;;;;;;0.40;0.40;;;4.00;99.90;;;;;;4969702;28;20638;-63
2023/12/19 15:47:34;;;;;;;0.40;0.40;;;4.10;99.90;;;;;;4959178;28;20203;-65
2023/12/19 15:50:03;;;;;;;0.30;0.30;;;4.10;99.90;;;;;;4958792;28;20270;-64
2023/12/19 15:52:30;;;;;;;0.32;0.32;;;4.00;99.90;;;;;;4959861;28;20275;-64
2023/12/19 15:54:57;;;;;;;0.30;0.30;;;4.00;99.90;;;;;;4958422;28;20189;-65
2023/12/19 15:57:24;;;;;;;0.50;0.50;;;3.90;99.90;;;;;;4966295;28;20210;-67
2023/12/19 15:59:50;;;;;;;0.30;0.30;;;3.80;99.90;;;;;;4972380;28;20560;-68
2023/12/19 16:02:17;;;;;;;0.50;0.50;;;3.80;99.90;;;;;;4965432;28;20549;-67
2023/12/19 16:04:44;;;;;;;0.40;0.40;;;3.80;99.90;;;;;;4976300;28;20215;-68
2023/12/19 16:07:11;;;;;;;0.40;0.40;;;3.70;99.90;;;;;;4966811;28;20205;-68
2023/12/19 16:09:37;;;;;;;0.40;0.40;;;3.70;99.90;;;;;;4958327;29;20242;-66
2023/12/19 16:12:04;;;;;;;0.40;0.40;;;3.70;99.90;;;;;;4958521;29;20638;-67
2023/12/19 16:14:29;;;;;;;0.38;0.38;;;3.80;99.90;;;;;;4961313;28;20212;-68
2023/12/19 16:16:55;;;;;;;0.40;0.40;;;3.80;99.90;;;;;;4968093;28;20237;-65
2023/12/19 16:19:21;;;;;;;0.60;0.60;;;3.70;99.90;;;;;;4967565;28;20197;-67
2023/12/19 16:21:47;;;;;;;0.30;0.30;;;3.70;99.90;;;;;;4977639;28;20285;-65
2023/12/19 16:24:14;;;;;;;1.17;1.17;;;3.70;99.90;;;;;;4973961;28;20674;-67
2023/12/19 16:26:39;;;;;;;0.40;0.40;;;3.70;99.90;;;;;;4968780;28;20194;-68
2023/12/19 16:29:06;;;;;;;0.30;0.30;;;3.70;99.90;;;;;;4958231;28;20174;-67
2023/12/19 16:31:33;;;;;;;0.50;0.50;;;3.60;99.90;;;;;;4971123;28;20508;-68
2023/12/19 16:34:00;;;;;;;0.50;0.50;;;3.60;99.90;;;;;;4977006;28;20181;-68
2023/12/19 16:36:26;;;;;;;0.30;0.30;;;3.50;99.90;;;;;;4975537;28;20687;-66
2023/12/19 16:38:52;;;;;;;0.30;0.30;;;3.50;99.90;;;;;;4972431;28;20208;-67
2023/12/19 16:41:21;;;;;;;0.30;0.30;;;3.40;99.90;;;;;;4976684;28;20172;-67
2023/12/19 16:43:49;;;;;;;1.08;1.08;;;3.40;99.90;;;;;;4963953;28;20769;-66
2023/12/19 16:46:15;;;;;;;0.32;0.32;;;3.40;99.90;;;;;;4957898;28;20535;-68
2023/12/19 16:48:41;;;;;;;0.40;0.40;;;3.30;99.90;;;;;;4956024;29;20185;-69
2023/12/19 16:51:07;;;;;;;0.32;0.32;;;3.30;99.90;;;;;;4961528;28;20181;-71
2023/12/19 16:53:32;;;;;;;0.40;0.40;;;3.30;99.90;;;;;;4966700;28;20186;-67
2023/12/19 16:55:58;;;;;;;0.30;0.30;;;3.20;99.90;;;;;;4955653;29;20177;-68
2023/12/19 16:58:24;;;;;;;0.40;0.40;;;3.20;99.90;;;;;;4973319;28;20695;-67
2023/12/19 17:00:49;;;;;;;0.43;0.43;;;3.30;99.90;;;;;;4974785;28;20172;-68
2023/12/19 17:03:15;;;;;;;0.37;0.37;;;3.30;99.90;;;;;;4971998;28;20181;-66
2023/12/19 17:05:41;;;;;;;0.50;0.50;;;3.30;99.90;;;;;;4971075;28;20207;-68
2023/12/19 17:08:06;;;;;;;0.30;0.30;;;3.30;99.90;;;;;;4976481;28;20222;-67
2023/12/19 17:10:32;;;;;;;0.30;0.30;;;3.30;99.90;;;;;;4971313;28;20186;-67
2023/12/19 17:12:58;;;;;;;0.40;0.40;;;3.30;99.90;;;;;;4968662;28;20181;-70
2023/12/19 17:15:24;;;;;;;0.55;0.55;;;3.40;99.90;;;;;;4972693;28;20189;-68
2023/12/19 17:17:51;;;;;;;0.50;0.50;;;3.40;99.90;;;;;;4961493;28;20555;-67
2023/12/19 17:20:17;;;;;;;0.38;0.38;;;3.40;99.90;;;;;;4956777;28;20208;-68
2023/12/19 17:22:43;;;;;;;0.38;0.38;;;3.40;99.90;;;;;;4960872;28;20183;-68
2023/12/19 17:25:09;;;;;;;0.40;0.40;;;3.40;99.90;;;;;;4975517;28;20634;-68
2023/12/19 17:27:35;;;;;;;0.50;0.50;;;3.40;99.90;;;;;;4957973;28;20804;-68
2023/12/19 17:30:03;;;;;;;0.70;0.70;;;3.40;99.90;;;;;;4957755;28;20178;-68
2023/12/19 17:32:30;;;;;;;0.40;0.40;;;3.40;99.90;;;;;;4956701;29;20249;-70
2023/12/19 17:34:55;;;;;;;0.45;0.45;;;3.50;99.90;;;;;;4956471;29;20173;-69
2023/12/19 17:37:21;;;;;;;0.30;0.30;;;3.50;99.90;;;;;;4956180;29;20546;-68
2023/12/19 17:39:47;;;;;;;0.43;0.43;;;3.50;99.90;;;;;;4974471;28;20208;-66
2023/12/19 17:42:12;;;;;;;0.50;0.50;;;3.50;99.90;;;;;;4975862;28;20224;-69
2023/12/19 17:44:38;;;;;;;0.50;0.50;;;3.50;99.90;;;;;;4973653;28;20251;-67
2023/12/19 17:47:04;;;;;;;0.20;0.20;;;3.60;99.90;;;;;;4974959;28;20227;-68
2023/12/19 17:49:29;;;;;;;0.47;0.47;;;3.60;99.90;;;;;;4973083;28;20194;-68
2023/12/19 17:51:56;;;;;;;0.30;0.30;;;3.60;99.90;;;;;;4958140;28;20404;-68
2023/12/19 17:54:22;;;;;;;0.40;0.40;;;3.50;99.90;;;;;;4974995;28;20507;-66
2023/12/19 17:56:48;;;;;;;0.32;0.32;;;3.50;99.90;;;;;;4975281;28;20210;-68
2023/12/19 17:59:14;;;;;;;0.33;0.33;;;3.40;99.90;;;;;;4971312;28;20268;-68
2023/12/19 18:01:44;;;;;;;0.38;0.38;;;3.40;99.90;;;;;;4957425;28;20268;-68